Time;durP1;ratioP1;P1;durP2;ratioP2;P2;SDS_P1;SDS_P2;PMS_P1;PMS_P2;Temp;Humidity;BMP_temperature;BMP_pressure;BME280_temperature;BME280_humidity;BME280_pressure;Samples;Min_cycle;Max_cycle;Signal;HPM_P1;HPM_P2
2023/08/22 00:01:22;;;;;;;;;1.50;1.50;;;;;;;;5080711;28;45247;-74
2023/08/22 00:03:48;;;;;;;;;2.67;1.67;;;;;;;;5080768;28;45252;-74
2023/08/22 00:06:13;;;;;;;;;1.67;1.33;;;;;;;;5061784;28;46169;-74
2023/08/22 00:08:38;;;;;;;;;1.33;1.33;;;;;;;;5079814;28;45260;-74
2023/08/22 00:11:03;;;;;;;;;1.00;1.00;;;;;;;;5079324;28;45123;-74
2023/08/22 00:13:28;;;;;;;;;2.33;2.33;;;;;;;;5080207;28;45288;-74
2023/08/22 00:15:58;;;;;;;;;2.00;2.00;;;;;;;;5073717;28;45466;-74
2023/08/22 00:18:23;;;;;;;;;1.00;1.00;;;;;;;;5060003;28;45237;-74
2023/08/22 00:20:48;;;;;;;;;2.00;2.00;;;;;;;;5059770;28;45401;-74
2023/08/22 00:23:13;;;;;;;;;1.25;1.25;;;;;;;;5041334;28;45489;-74
2023/08/22 00:25:38;;;;;;;;;1.00;1.00;;;;;;;;5059854;28;45449;-74
2023/08/22 00:28:04;;;;;;;;;2.00;2.00;;;;;;;;5059941;28;46109;-74
2023/08/22 00:30:29;;;;;;;;;5.00;4.00;;;;;;;;5096759;27;45288;-74
2023/08/22 00:32:54;;;;;;;;;1.00;0.67;;;;;;;;5100666;27;45523;-74
2023/08/22 00:35:19;;;;;;;;;1.00;1.00;;;;;;;;5100432;27;45419;-74
2023/08/22 00:37:44;;;;;;;;;1.00;1.00;;;;;;;;5081916;27;47268;-74
2023/08/22 00:40:10;;;;;;;;;2.33;2.33;;;;;;;;5100507;27;45257;-74
2023/08/22 00:42:35;;;;;;;;;2.00;2.00;;;;;;;;5100293;27;45445;-74
2023/08/22 00:45:00;;;;;;;;;3.67;1.33;;;;;;;;5081981;27;46038;-74
2023/08/22 00:47:25;;;;;;;;;2.00;2.00;;;;;;;;5082040;27;46994;-74
2023/08/22 00:49:51;;;;;;;;;2.00;2.00;;;;;;;;5100379;27;45200;-74
2023/08/22 00:52:17;;;;;;;;;1.00;1.00;;;;;;;;5100164;27;45212;-74
2023/08/22 00:54:42;;;;;;;;;2.00;1.33;;;;;;;;5100004;27;45410;-74
2023/08/22 00:57:08;;;;;;;;;2.00;2.00;;;;;;;;5098824;27;46377;-74
2023/08/22 00:59:34;;;;;;;;;1.00;0.50;;;;;;;;5099443;27;45663;-74
2023/08/22 01:01:59;;;;;;;;;2.25;2.00;;;;;;;;5100323;27;45456;-74
2023/08/22 01:04:25;;;;;;;;;2.75;2.50;;;;;;;;5100202;27;45488;-74
2023/08/22 01:06:50;;;;;;;;;1.25;1.25;;;;;;;;5099831;27;45385;-74
2023/08/22 01:09:18;;;;;;;;;1.33;1.33;;;;;;;;5100087;27;45311;-74
2023/08/22 01:11:45;;;;;;;;;1.00;1.00;;;;;;;;5081876;27;45312;-74
2023/08/22 01:14:13;;;;;;;;;2.00;2.00;;;;;;;;5081818;27;47253;-74
2023/08/22 01:16:39;;;;;;;;;2.00;2.00;;;;;;;;5099921;27;45313;-74
2023/08/22 01:19:04;;;;;;;;;1.50;1.50;;;;;;;;5099885;27;45878;-74
2023/08/22 01:21:32;;;;;;;;;2.00;2.00;;;;;;;;5081511;27;45357;-74
2023/08/22 01:23:58;;;;;;;;;3.33;2.00;;;;;;;;5099827;27;45481;-74
2023/08/22 01:26:23;;;;;;;;;1.33;1.33;;;;;;;;5099945;27;45334;-74
2023/08/22 01:28:52;;;;;;;;;1.00;1.00;;;;;;;;5095397;27;45482;-74
2023/08/22 01:31:36;;;;;;;;;0.00;0.00;;;;;;;;5079755;28;45192;-74
2023/08/22 01:34:20;;;;;;;;;1.00;1.00;;;;;;;;5079413;28;45660;-74
2023/08/22 01:36:46;;;;;;;;;1.00;1.00;;;;;;;;5081475;28;46271;-74
2023/08/22 01:39:13;;;;;;;;;0.00;0.00;;;;;;;;5082981;28;45682;-74
2023/08/22 01:41:38;;;;;;;;;1.00;1.00;;;;;;;;5064563;28;45206;-74
2023/08/22 01:44:03;;;;;;;;;2.00;2.00;;;;;;;;5082714;28;45577;-74
2023/08/22 01:46:29;;;;;;;;;1.67;1.67;;;;;;;;5082756;28;46040;-74
2023/08/22 01:48:55;;;;;;;;;2.00;2.00;;;;;;;;5082687;28;45352;-74
2023/08/22 01:51:20;;;;;;;;;1.00;1.00;;;;;;;;5082804;28;45291;-73
2023/08/22 01:53:45;;;;;;;;;1.00;1.00;;;;;;;;5082228;28;45334;-73
2023/08/22 01:56:10;;;;;;;;;1.00;1.00;;;;;;;;5082598;28;45425;-74
2023/08/22 01:58:36;;;;;;;;;2.00;0.75;;;;;;;;5082675;28;45387;-74
2023/08/22 02:01:07;;;;;;;;;0.75;0.00;;;;;;;;5082646;28;45307;-74
2023/08/22 02:03:33;;;;;;;;;2.00;1.50;;;;;;;;5082467;28;45469;-75
2023/08/22 02:05:58;;;;;;;;;1.00;1.00;;;;;;;;5082071;28;45259;-74
2023/08/22 02:08:23;;;;;;;;;1.50;0.50;;;;;;;;5082404;28;45126;-74
2023/08/22 02:10:48;;;;;;;;;1.75;1.75;;;;;;;;5082523;28;45432;-73
2023/08/22 02:13:13;;;;;;;;;2.00;1.75;;;;;;;;5082315;28;45458;-74
2023/08/22 02:15:39;;;;;;;;;1.00;1.00;;;;;;;;5082418;28;45708;-74
2023/08/22 02:18:04;;;;;;;;;1.75;1.25;;;;;;;;5082373;28;45390;-74
2023/08/22 02:20:30;;;;;;;;;1.00;1.00;;;;;;;;5082128;28;45347;-74
2023/08/22 02:22:55;;;;;;;;;1.25;1.25;;;;;;;;5081903;28;45317;-74
2023/08/22 02:25:21;;;;;;;;;1.50;1.50;;;;;;;;5081961;28;46817;-74
2023/08/22 02:27:46;;;;;;;;;2.00;2.00;;;;;;;;5082213;28;45287;-74
2023/08/22 02:30:11;;;;;;;;;1.00;1.00;;;;;;;;5097984;27;45321;-74
2023/08/22 02:32:37;;;;;;;;;0.50;0.50;;;;;;;;5084089;27;46919;-74
2023/08/22 02:35:03;;;;;;;;;2.00;0.00;;;;;;;;5102517;27;45405;-74
2023/08/22 02:37:28;;;;;;;;;1.67;1.67;;;;;;;;5102144;27;45728;-74
2023/08/22 02:39:55;;;;;;;;;1.00;1.00;;;;;;;;5102481;27;45271;-74
2023/08/22 02:42:20;;;;;;;;;1.00;1.00;;;;;;;;5101919;27;45501;-74
2023/08/22 02:44:46;;;;;;;;;2.00;2.00;;;;;;;;5102205;27;46211;-74
2023/08/22 02:47:11;;;;;;;;;2.33;2.00;;;;;;;;5101986;27;45324;-73
2023/08/22 02:49:36;;;;;;;;;1.00;1.00;;;;;;;;5102313;27;45384;-74
2023/08/22 02:52:02;;;;;;;;;0.67;0.67;;;;;;;;5101665;27;45406;-74
2023/08/22 02:54:27;;;;;;;;;1.00;1.00;;;;;;;;5083502;27;47210;-74
2023/08/22 02:56:52;;;;;;;;;1.33;1.33;;;;;;;;5102034;27;45204;-74
2023/08/22 02:59:20;;;;;;;;;2.00;2.00;;;;;;;;5102150;27;45165;-74
2023/08/22 03:01:45;;;;;;;;;1.33;1.33;;;;;;;;5101965;27;45409;-74
2023/08/22 03:04:10;;;;;;;;;1.00;1.00;;;;;;;;5083574;27;47005;-74
2023/08/22 03:06:35;;;;;;;;;1.00;1.00;;;;;;;;5101821;27;45283;-74
2023/08/22 03:09:03;;;;;;;;;1.33;1.33;;;;;;;;5101945;27;45489;-74
2023/08/22 03:11:28;;;;;;;;;1.00;1.00;;;;;;;;5083338;27;46157;-74
2023/08/22 03:13:53;;;;;;;;;1.00;1.00;;;;;;;;5101592;27;45328;-74
2023/08/22 03:16:18;;;;;;;;;0.00;0.00;;;;;;;;5101931;27;45335;-74
2023/08/22 03:18:43;;;;;;;;;2.50;1.00;;;;;;;;5101745;27;45517;-74
2023/08/22 03:21:09;;;;;;;;;1.00;1.00;;;;;;;;5101735;27;45395;-74
2023/08/22 03:23:34;;;;;;;;;3.75;2.00;;;;;;;;5083100;27;46968;-74
2023/08/22 03:26:00;;;;;;;;;2.00;2.00;;;;;;;;5083083;27;45314;-74
2023/08/22 03:28:26;;;;;;;;;0.00;0.00;;;;;;;;5100508;27;45286;-73
2023/08/22 03:30:58;;;;;;;;;1.00;1.00;;;;;;;;5081113;28;45181;-73
2023/08/22 03:33:24;;;;;;;;;1.33;1.33;;;;;;;;5080989;28;46144;-73
2023/08/22 03:35:50;;;;;;;;;1.00;1.00;;;;;;;;5080999;28;45314;-74
2023/08/22 03:38:15;;;;;;;;;3.00;2.00;;;;;;;;5080970;28;45215;-73
2023/08/22 03:40:41;;;;;;;;;1.33;1.33;;;;;;;;5080681;28;45293;-74
2023/08/22 03:43:06;;;;;;;;;2.00;1.00;;;;;;;;5062510;28;47496;-74
2023/08/22 03:45:31;;;;;;;;;3.33;3.33;;;;;;;;5080909;28;45129;-73
2023/08/22 03:47:56;;;;;;;;;1.00;1.00;;;;;;;;5081048;28;45295;-74
2023/08/22 03:50:21;;;;;;;;;1.00;1.00;;;;;;;;5080611;28;45544;-74
2023/08/22 03:52:46;;;;;;;;;0.25;0.25;;;;;;;;5080378;28;45341;-73
2023/08/22 03:55:12;;;;;;;;;1.00;1.00;;;;;;;;5080740;28;45195;-74
2023/08/22 03:57:37;;;;;;;;;3.00;2.00;;;;;;;;5080473;28;45226;-74
2023/08/22 04:00:04;;;;;;;;;2.33;2.33;;;;;;;;5080168;28;45196;-74
2023/08/22 04:02:29;;;;;;;;;6.00;6.00;;;;;;;;5062215;28;47744;-74
2023/08/22 04:04:55;;;;;;;;;12.33;12.33;;;;;;;;5080562;28;45544;-74
2023/08/22 04:07:20;;;;;;;;;15.33;15.33;;;;;;;;5080458;28;45339;-74
2023/08/22 04:09:45;;;;;;;;;5.33;5.33;;;;;;;;5079839;28;45401;-74
2023/08/22 04:12:10;;;;;;;;;2.67;2.67;;;;;;;;5079873;28;46366;-74
2023/08/22 04:14:35;;;;;;;;;2.00;2.00;;;;;;;;5080050;28;45391;-74
2023/08/22 04:17:00;;;;;;;;;1.75;1.75;;;;;;;;5062044;28;45370;-74
2023/08/22 04:19:26;;;;;;;;;2.00;2.00;;;;;;;;5079725;28;45292;-74
2023/08/22 04:21:51;;;;;;;;;1.00;1.00;;;;;;;;5080018;28;45382;-74
2023/08/22 04:24:16;;;;;;;;;2.67;2.67;;;;;;;;5080339;28;45369;-74
2023/08/22 04:26:41;;;;;;;;;2.00;2.00;;;;;;;;5080434;28;45343;-74
2023/08/22 04:29:06;;;;;;;;;10.33;10.00;;;;;;;;5087146;27;45360;-74
2023/08/22 04:31:32;;;;;;;;;16.67;15.67;;;;;;;;5100474;27;45375;-74
2023/08/22 04:33:57;;;;;;;;;38.00;30.33;;;;;;;;5100582;27;45461;-74
2023/08/22 04:36:22;;;;;;;;;19.00;18.33;;;;;;;;5100621;27;45356;-74
2023/08/22 04:38:49;;;;;;;;;15.00;14.67;;;;;;;;5081768;27;45951;-74
2023/08/22 04:41:15;;;;;;;;;13.00;11.00;;;;;;;;5099933;27;46141;-74
2023/08/22 04:43:40;;;;;;;;;3.00;3.00;;;;;;;;5100395;27;45255;-74
2023/08/22 04:46:05;;;;;;;;;2.00;2.00;;;;;;;;5100604;27;45338;-74
2023/08/22 04:48:30;;;;;;;;;3.00;3.00;;;;;;;;5100378;27;45660;-74
2023/08/22 04:50:55;;;;;;;;;4.33;3.67;;;;;;;;5081625;27;46837;-74
2023/08/22 04:53:20;;;;;;;;;3.33;2.00;;;;;;;;5099951;27;45233;-74
2023/08/22 04:55:46;;;;;;;;;6.33;4.00;;;;;;;;5100541;27;45370;-74
2023/08/22 04:58:11;;;;;;;;;4.67;4.00;;;;;;;;5100286;27;45532;-73
2023/08/22 05:00:36;;;;;;;;;1.67;1.67;;;;;;;;5100065;27;45140;-74
2023/08/22 05:03:01;;;;;;;;;3.00;2.33;;;;;;;;5081885;27;46151;-74
2023/08/22 05:05:26;;;;;;;;;1.00;1.00;;;;;;;;5100196;27;45254;-74
2023/08/22 05:07:52;;;;;;;;;2.00;2.00;;;;;;;;5070127;27;45472;-74
2023/08/22 05:10:17;;;;;;;;;1.67;1.00;;;;;;;;5041657;28;47433;-74
2023/08/22 05:12:42;;;;;;;;;5.67;5.33;;;;;;;;5061842;28;45354;-73
2023/08/22 05:15:07;;;;;;;;;7.67;7.67;;;;;;;;5066790;28;45339;-73
2023/08/22 05:17:33;;;;;;;;;8.00;7.67;;;;;;;;5081894;28;45323;-73
2023/08/22 05:19:58;;;;;;;;;8.00;7.67;;;;;;;;5081762;28;46144;-73
2023/08/22 05:22:23;;;;;;;;;5.00;5.00;;;;;;;;5081556;28;45272;-73
2023/08/22 05:24:48;;;;;;;;;5.33;3.67;;;;;;;;5063450;28;45471;-73
2023/08/22 05:27:14;;;;;;;;;3.33;3.00;;;;;;;;5081783;28;45259;-74
2023/08/22 05:29:39;;;;;;;;;3.67;2.00;;;;;;;;5081621;28;45528;-74
2023/08/22 05:32:04;;;;;;;;;2.67;2.00;;;;;;;;5081942;28;45562;-75
2023/08/22 05:34:29;;;;;;;;;4.00;3.00;;;;;;;;5082147;28;45507;-74
2023/08/22 05:36:55;;;;;;;;;3.00;1.33;;;;;;;;5082006;28;45353;-75
2023/08/22 05:39:20;;;;;;;;;3.00;3.00;;;;;;;;5082858;28;45336;-74
2023/08/22 05:41:45;;;;;;;;;3.00;2.00;;;;;;;;5082687;28;45457;-75
2023/08/22 05:44:10;;;;;;;;;3.00;3.00;;;;;;;;5082916;28;45360;-75
2023/08/22 05:46:35;;;;;;;;;4.00;2.67;;;;;;;;5082587;28;45354;-74
2023/08/22 05:49:00;;;;;;;;;2.33;1.00;;;;;;;;5082689;28;46172;-74
2023/08/22 05:51:26;;;;;;;;;3.33;3.33;;;;;;;;5082129;28;45394;-74
2023/08/22 05:53:51;;;;;;;;;2.00;2.00;;;;;;;;5082343;28;45579;-74
2023/08/22 05:56:16;;;;;;;;;2.00;2.00;;;;;;;;5082681;28;45347;-74
2023/08/22 05:58:41;;;;;;;;;2.00;2.00;;;;;;;;5082472;28;45997;-74
2023/08/22 06:01:10;;;;;;;;;4.33;3.00;;;;;;;;5063854;28;45321;-74
2023/08/22 06:03:36;;;;;;;;;4.33;3.67;;;;;;;;5082501;28;45209;-74
2023/08/22 06:06:01;;;;;;;;;3.00;2.00;;;;;;;;5082240;28;45380;-74
2023/08/22 06:08:26;;;;;;;;;2.67;2.67;;;;;;;;5081997;28;46366;-75
2023/08/22 06:10:51;;;;;;;;;2.33;2.33;;;;;;;;5082312;28;45179;-74
2023/08/22 06:13:16;;;;;;;;;5.00;3.00;;;;;;;;5082153;28;45121;-74
2023/08/22 06:15:41;;;;;;;;;4.00;3.00;;;;;;;;5052110;28;47454;-74
2023/08/22 06:18:07;;;;;;;;;3.33;3.33;;;;;;;;5080787;28;45346;-75
2023/08/22 06:20:36;;;;;;;;;4.67;4.67;;;;;;;;5081850;28;45268;-74
2023/08/22 06:23:02;;;;;;;;;4.00;3.00;;;;;;;;5081471;28;45426;-75
2023/08/22 06:25:27;;;;;;;;;60.25;48.75;;;;;;;;5081926;28;45299;-75
2023/08/22 06:27:52;;;;;;;;;28.67;26.00;;;;;;;;5081756;28;45470;-73
2023/08/22 06:30:17;;;;;;;;;13.67;13.00;;;;;;;;5098774;27;45325;-73
2023/08/22 06:32:43;;;;;;;;;50.00;41.67;;;;;;;;5083399;27;45607;-74
2023/08/22 06:35:08;;;;;;;;;21.67;20.33;;;;;;;;5083306;27;46008;-74
2023/08/22 06:37:33;;;;;;;;;8.00;7.00;;;;;;;;5101685;27;46333;-74
2023/08/22 06:39:58;;;;;;;;;4.67;3.00;;;;;;;;5100838;27;45339;-74
2023/08/22 06:42:23;;;;;;;;;7.00;7.00;;;;;;;;5082802;27;45249;-74
2023/08/22 06:44:49;;;;;;;;;8.00;8.00;;;;;;;;5062372;28;45376;-74
2023/08/22 06:47:14;;;;;;;;;17.33;16.33;;;;;;;;5042787;28;48206;-74
2023/08/22 06:49:39;;;;;;;;;23.00;22.00;;;;;;;;5060919;28;45438;-74
2023/08/22 06:52:04;;;;;;;;;31.00;27.67;;;;;;;;5060480;28;45386;-74
2023/08/22 06:54:30;;;;;;;;;4.33;4.33;;;;;;;;5060383;28;45473;-74
2023/08/22 06:56:56;;;;;;;;;12.67;9.00;;;;;;;;5061157;28;46257;-74
2023/08/22 06:59:21;;;;;;;;;15.67;14.67;;;;;;;;5061150;28;45411;-74
2023/08/22 07:01:46;;;;;;;;;13.00;12.00;;;;;;;;5061000;28;45300;-74
2023/08/22 07:04:11;;;;;;;;;5.00;5.00;;;;;;;;5061294;28;45217;-74
2023/08/22 07:06:37;;;;;;;;;5.00;5.00;;;;;;;;5060814;28;45203;-74
2023/08/22 07:09:03;;;;;;;;;3.00;3.00;;;;;;;;5061202;28;45351;-74
2023/08/22 07:11:28;;;;;;;;;4.00;4.00;;;;;;;;5043021;28;45286;-74
2023/08/22 07:13:53;;;;;;;;;4.00;4.00;;;;;;;;5060977;28;45446;-74
2023/08/22 07:16:18;;;;;;;;;2.33;2.33;;;;;;;;5060998;28;46159;-74
2023/08/22 07:18:44;;;;;;;;;7.00;5.00;;;;;;;;5061036;28;45320;-74
2023/08/22 07:21:09;;;;;;;;;7.67;7.67;;;;;;;;5061076;28;45272;-74
2023/08/22 07:23:34;;;;;;;;;47.33;37.67;;;;;;;;5060748;28;45482;-74
2023/08/22 07:26:00;;;;;;;;;9.67;7.67;;;;;;;;5070933;28;46112;-74
2023/08/22 07:28:25;;;;;;;;;7.33;5.00;;;;;;;;5082362;27;45330;-74
2023/08/22 07:30:51;;;;;;;;;23.33;22.67;;;;;;;;5101675;27;45269;-74
2023/08/22 07:33:16;;;;;;;;;26.67;24.00;;;;;;;;5100246;27;45397;-74
2023/08/22 07:35:44;;;;;;;;;8.67;8.00;;;;;;;;5101331;27;45365;-74
2023/08/22 07:38:09;;;;;;;;;18.67;17.67;;;;;;;;5101181;27;45294;-74
2023/08/22 07:40:39;;;;;;;;;7.33;7.33;;;;;;;;5082936;27;45342;-74
2023/08/22 07:43:04;;;;;;;;;10.00;7.33;;;;;;;;5101014;27;45353;-74
2023/08/22 07:45:29;;;;;;;;;6.00;6.00;;;;;;;;5082668;27;47017;-74
2023/08/22 07:47:54;;;;;;;;;6.33;5.33;;;;;;;;5101299;27;45376;-74
2023/08/22 07:50:20;;;;;;;;;7.00;7.00;;;;;;;;5082824;27;45451;-74
2023/08/22 07:52:45;;;;;;;;;8.00;7.00;;;;;;;;5100848;27;45295;-74
2023/08/22 07:55:10;;;;;;;;;32.33;29.33;;;;;;;;5101138;27;46549;-75
2023/08/22 07:57:35;;;;;;;;;11.33;11.33;;;;;;;;5101141;27;45354;-74
2023/08/22 08:00:00;;;;;;;;;8.00;8.00;;;;;;;;5101194;27;45494;-74
2023/08/22 08:02:26;;;;;;;;;7.33;7.00;;;;;;;;5100820;27;45468;-74
2023/08/22 08:04:51;;;;;;;;;12.00;11.33;;;;;;;;5100933;27;45420;-74
2023/08/22 08:07:16;;;;;;;;;6.00;6.00;;;;;;;;5100756;27;45397;-75
2023/08/22 08:09:41;;;;;;;;;5.67;4.00;;;;;;;;5101044;27;45299;-74
2023/08/22 08:12:07;;;;;;;;;3.00;3.00;;;;;;;;5082390;27;46427;-75
2023/08/22 08:14:32;;;;;;;;;5.00;5.00;;;;;;;;5100751;27;46773;-74
2023/08/22 08:16:58;;;;;;;;;3.00;3.00;;;;;;;;5100936;27;45275;-74
2023/08/22 08:19:23;;;;;;;;;4.00;4.00;;;;;;;;5100872;27;45328;-75
2023/08/22 08:21:48;;;;;;;;;3.00;3.00;;;;;;;;5100406;27;45429;-74
2023/08/22 08:24:14;;;;;;;;;3.00;2.25;;;;;;;;5100724;27;46019;-74
2023/08/22 08:26:40;;;;;;;;;4.25;3.25;;;;;;;;5082357;27;46127;-74
2023/08/22 08:29:05;;;;;;;;;3.50;3.50;;;;;;;;5075501;28;45259;-74
2023/08/22 08:31:30;;;;;;;;;13.00;11.00;;;;;;;;5080244;28;45641;-74
2023/08/22 08:33:55;;;;;;;;;3.00;2.75;;;;;;;;5080108;28;45621;-74
2023/08/22 08:36:20;;;;;;;;;3.50;3.00;;;;;;;;5061618;28;45249;-74
2023/08/22 08:38:45;;;;;;;;;3.25;3.25;;;;;;;;5080171;28;45351;-75
2023/08/22 08:41:11;;;;;;;;;2.75;2.75;;;;;;;;5061656;28;46326;-75
2023/08/22 08:43:37;;;;;;;;;4.00;4.00;;;;;;;;5079967;28;46524;-75
2023/08/22 08:46:03;;;;;;;;;16.00;15.00;;;;;;;;5079396;28;45443;-74
2023/08/22 08:48:29;;;;;;;;;3.25;3.25;;;;;;;;5080069;28;45296;-75
2023/08/22 08:50:55;;;;;;;;;5.33;4.67;;;;;;;;5061496;28;46266;-75
2023/08/22 08:53:21;;;;;;;;;46.67;37.67;;;;;;;;5079444;28;46294;-75
2023/08/22 08:55:46;;;;;;;;;19.67;18.33;;;;;;;;5079706;28;45284;-74
2023/08/22 08:58:11;;;;;;;;;3.33;3.33;;;;;;;;5076674;27;45485;-76
2023/08/22 09:00:37;;;;;;;;;2.00;2.00;;;;;;;;5079590;28;45380;-77
2023/08/22 09:03:02;;;;;;;;;2.25;2.25;;;;;;;;5088333;27;46051;-74
2023/08/22 09:05:29;;;;;;;;;2.50;2.50;;;;;;;;5060252;28;45355;-76
2023/08/22 09:07:54;;;;;;;;;3.50;2.00;;;;;;;;5080111;27;45474;-75
2023/08/22 09:10:33;;;;;;;;;2.00;2.00;;;;;;;;5061826;28;45134;-75
2023/08/22 09:13:01;;;;;;;;;2.75;2.75;;;;;;;;5069626;27;45161;-76
2023/08/22 09:15:26;;;;;;;;;7.00;7.00;;;;;;;;5076759;28;45491;-75
2023/08/22 09:17:57;;;;;;;;;3.50;3.50;;;;;;;;5079151;27;45323;-75
2023/08/22 09:20:22;;;;;;;;;7.33;7.33;;;;;;;;5060809;28;46934;-75
2023/08/22 09:22:48;;;;;;;;;6.67;6.33;;;;;;;;5078945;27;45252;-75
2023/08/22 09:25:14;;;;;;;;;54.00;43.75;;;;;;;;5078826;28;45323;-77
2023/08/22 09:27:39;;;;;;;;;33.00;28.33;;;;;;;;5077660;27;45243;-75
2023/08/22 09:30:04;;;;;;;;;34.00;29.00;;;;;;;;5091373;27;45612;-74
2023/08/22 09:32:30;;;;;;;;;12.67;12.33;;;;;;;;5078857;27;46504;-75
2023/08/22 09:34:56;;;;;;;;;3.00;3.00;;;;;;;;5059859;28;45943;-75
2023/08/22 09:37:37;;;;;;;;;52.67;42.00;;;;;;;;5082282;27;45323;-75
2023/08/22 09:40:07;;;;;;;;;19.33;18.00;;;;;;;;5087396;27;45448;-75
2023/08/22 09:42:34;;;;;;;;;21.33;19.00;;;;;;;;5057161;28;48390;-74
2023/08/22 09:45:00;;;;;;;;;7.67;7.67;;;;;;;;5058892;28;45141;-75
2023/08/22 09:47:29;;;;;;;;;8.33;7.00;;;;;;;;5057551;28;45163;-74
2023/08/22 09:49:56;;;;;;;;;68.75;64.50;;;;;;;;5058782;28;45345;-75
2023/08/22 09:52:22;;;;;;;;;15.00;14.00;;;;;;;;5058350;28;45369;-75
2023/08/22 09:54:47;;;;;;;;;4.50;2.25;;;;;;;;5058543;28;45405;-75
2023/08/22 09:57:12;;;;;;;;;27.00;24.33;;;;;;;;5060860;28;45362;-75
2023/08/22 09:59:38;;;;;;;;;12.33;12.00;;;;;;;;5060859;28;45341;-75
2023/08/22 10:02:04;;;;;;;;;23.33;21.33;;;;;;;;5062184;28;45960;-75
2023/08/22 10:04:30;;;;;;;;;17.00;15.33;;;;;;;;5062123;28;45322;-75
2023/08/22 10:06:55;;;;;;;;;4.00;3.00;;;;;;;;5061927;28;45199;-75
2023/08/22 10:09:20;;;;;;;;;6.00;6.00;;;;;;;;5060584;28;47106;-75
2023/08/22 10:11:54;;;;;;;;;4.75;4.75;;;;;;;;5060682;28;46207;-75
2023/08/22 10:14:25;;;;;;;;;13.00;12.67;;;;;;;;5042156;28;45280;-74
2023/08/22 10:16:51;;;;;;;;;3.25;3.00;;;;;;;;5041406;28;45295;-74
2023/08/22 10:19:19;;;;;;;;;2.25;2.25;;;;;;;;5040041;28;45593;-75
2023/08/22 10:21:46;;;;;;;;;5.67;5.67;;;;;;;;5041031;28;45383;-75
2023/08/22 10:24:26;;;;;;;;;5.00;5.00;;;;;;;;5052063;28;45290;-76
2023/08/22 10:26:58;;;;;;;;;3.00;3.00;;;;;;;;5061544;28;45382;-75
2023/08/22 10:29:24;;;;;;;;;2.00;2.00;;;;;;;;5066439;28;46396;-75
2023/08/22 10:32:01;;;;;;;;;2.50;1.00;;;;;;;;5061289;28;45386;-74
2023/08/22 10:34:26;;;;;;;;;70.00;64.00;;;;;;;;5060993;28;46407;-75
2023/08/22 10:37:01;;;;;;;;;125.25;116.75;;;;;;;;5061119;28;45510;-74
2023/08/22 10:39:39;;;;;;;;;14.67;13.67;;;;;;;;5060725;28;45448;-75
2023/08/22 10:42:04;;;;;;;;;2.00;1.00;;;;;;;;5072926;28;46163;-75
2023/08/22 10:44:30;;;;;;;;;4.50;3.50;;;;;;;;5067912;28;45190;-74
2023/08/22 10:47:03;;;;;;;;;3.75;3.00;;;;;;;;5063201;28;45387;-74
2023/08/22 10:49:32;;;;;;;;;3.50;3.50;;;;;;;;5061359;28;46017;-74
2023/08/22 10:52:03;;;;;;;;;1.25;1.25;;;;;;;;5079922;28;45244;-74
2023/08/22 10:54:29;;;;;;;;;2.00;2.00;;;;;;;;5079036;27;45380;-74
2023/08/22 10:57:14;;;;;;;;;2.75;2.75;;;;;;;;5081753;28;45348;-75
2023/08/22 11:00:17;;;;;;;;;3.00;3.00;;;;;;;;5062868;28;46155;-75
2023/08/22 11:02:43;;;;;;;;;26.67;24.67;;;;;;;;4978918;28;46427;-74
2023/08/22 11:05:10;;;;;;;;;1.00;1.00;;;;;;;;5060976;28;45331;-75
2023/08/22 11:07:36;;;;;;;;;0.00;0.00;;;;;;;;5062801;27;45491;-75
2023/08/22 11:10:01;;;;;;;;;2.00;2.00;;;;;;;;5062400;28;45964;-75
2023/08/22 11:12:27;;;;;;;;;2.75;2.75;;;;;;;;5080806;28;46293;-75
2023/08/22 11:14:53;;;;;;;;;2.25;2.25;;;;;;;;5081285;28;45502;-74
2023/08/22 11:17:18;;;;;;;;;3.25;3.25;;;;;;;;5057618;28;45554;-75
2023/08/22 11:19:44;;;;;;;;;1.00;1.00;;;;;;;;5053194;28;47411;-76
2023/08/22 11:22:10;;;;;;;;;2.00;2.00;;;;;;;;5080554;28;46171;-76
2023/08/22 11:24:35;;;;;;;;;1.50;1.50;;;;;;;;5080322;28;45359;-76
2023/08/22 11:27:04;;;;;;;;;2.00;2.00;;;;;;;;5080832;28;45702;-75
2023/08/22 11:29:38;;;;;;;;;1.25;1.25;;;;;;;;5080440;28;45493;-76
2023/08/22 11:32:03;;;;;;;;;2.75;2.75;;;;;;;;5080967;28;46349;-75
2023/08/22 11:34:28;;;;;;;;;1.25;1.25;;;;;;;;5081127;28;45275;-74
2023/08/22 11:36:54;;;;;;;;;3.25;1.75;;;;;;;;5080852;28;45366;-75
2023/08/22 11:39:19;;;;;;;;;2.00;2.00;;;;;;;;5079384;28;45312;-75
2023/08/22 11:41:44;;;;;;;;;1.00;1.00;;;;;;;;5077702;28;45461;-75
2023/08/22 11:44:12;;;;;;;;;1.25;1.00;;;;;;;;5080893;28;45224;-75
2023/08/22 11:46:37;;;;;;;;;2.00;2.00;;;;;;;;5081025;28;45296;-75
2023/08/22 11:49:06;;;;;;;;;2.00;1.50;;;;;;;;5080480;28;45291;-74
2023/08/22 11:51:32;;;;;;;;;2.00;2.00;;;;;;;;5061945;28;48285;-75
2023/08/22 11:53:57;;;;;;;;;1.75;1.75;;;;;;;;5080393;28;45368;-75
2023/08/22 11:56:22;;;;;;;;;1.50;1.50;;;;;;;;5080770;28;45322;-74
2023/08/22 11:58:51;;;;;;;;;2.75;2.75;;;;;;;;5080671;28;45329;-75
2023/08/22 12:01:17;;;;;;;;;2.00;2.00;;;;;;;;5062318;28;47812;-75
2023/08/22 12:03:43;;;;;;;;;1.75;1.75;;;;;;;;5080546;28;45230;-75
2023/08/22 12:06:12;;;;;;;;;2.00;1.00;;;;;;;;5065034;28;45722;-75
2023/08/22 12:08:37;;;;;;;;;2.75;2.00;;;;;;;;5043712;28;46951;-75
2023/08/22 12:11:03;;;;;;;;;2.00;2.00;;;;;;;;5079218;28;46053;-75
2023/08/22 12:13:29;;;;;;;;;25.33;23.33;;;;;;;;5078902;28;45387;-75
2023/08/22 12:15:54;;;;;;;;;2.00;2.00;;;;;;;;5073618;28;45467;-75
2023/08/22 12:18:26;;;;;;;;;3.75;3.75;;;;;;;;5045147;28;45709;-75
2023/08/22 12:20:52;;;;;;;;;4.75;4.75;;;;;;;;5040856;28;48435;-75
2023/08/22 12:23:17;;;;;;;;;1.00;1.00;;;;;;;;5059737;28;45438;-75
2023/08/22 12:25:43;;;;;;;;;2.50;2.50;;;;;;;;5070563;28;45349;-75
2023/08/22 12:28:09;;;;;;;;;74.00;67.00;;;;;;;;5078441;28;45339;-75
2023/08/22 12:30:35;;;;;;;;;37.33;32.33;;;;;;;;5084839;27;46229;-74
2023/08/22 12:33:03;;;;;;;;;44.67;37.33;;;;;;;;5078929;28;45330;-74
2023/08/22 12:35:28;;;;;;;;;7.00;6.00;;;;;;;;5079469;28;45340;-75
2023/08/22 12:37:53;;;;;;;;;4.75;3.50;;;;;;;;5078969;28;45276;-74
2023/08/22 12:40:19;;;;;;;;;2.00;2.00;;;;;;;;5079229;28;45354;-75
2023/08/22 12:42:47;;;;;;;;;3.00;3.00;;;;;;;;5078995;28;45220;-75
2023/08/22 12:45:12;;;;;;;;;2.75;2.75;;;;;;;;5078746;28;45568;-74
2023/08/22 12:47:38;;;;;;;;;3.50;3.50;;;;;;;;5079178;28;45481;-75
2023/08/22 12:50:03;;;;;;;;;2.00;1.50;;;;;;;;5060858;28;48077;-75
2023/08/22 12:52:28;;;;;;;;;2.00;2.00;;;;;;;;5079383;28;45339;-75
2023/08/22 12:54:53;;;;;;;;;2.00;2.00;;;;;;;;5078461;27;45395;-74
2023/08/22 12:57:18;;;;;;;;;2.00;2.00;;;;;;;;5077883;28;45703;-75
2023/08/22 12:59:44;;;;;;;;;3.00;3.00;;;;;;;;5059706;28;47462;-76
2023/08/22 13:02:09;;;;;;;;;1.75;1.75;;;;;;;;5069641;28;45388;-77
2023/08/22 13:04:34;;;;;;;;;2.50;2.50;;;;;;;;5058414;28;45457;-75
2023/08/22 13:06:59;;;;;;;;;2.25;2.25;;;;;;;;5075788;28;45486;-75
2023/08/22 13:09:24;;;;;;;;;8.33;8.00;;;;;;;;5063509;28;45421;-76
2023/08/22 13:11:50;;;;;;;;;17.33;16.00;;;;;;;;5069661;28;45352;-76
2023/08/22 13:14:15;;;;;;;;;4.00;4.00;;;;;;;;5049916;28;45300;-75
2023/08/22 13:16:40;;;;;;;;;9.75;8.75;;;;;;;;5071847;28;45406;-75
2023/08/22 13:19:05;;;;;;;;;4.25;1.50;;;;;;;;5069203;28;45382;-75
2023/08/22 13:21:30;;;;;;;;;4.67;4.33;;;;;;;;5073118;28;45257;-75
2023/08/22 13:23:56;;;;;;;;;2.75;2.75;;;;;;;;5060100;28;45447;-76
2023/08/22 13:26:21;;;;;;;;;2.50;2.50;;;;;;;;5078709;28;45259;-75
2023/08/22 13:28:47;;;;;;;;;2.00;2.00;;;;;;;;5083229;27;45271;-75
2023/08/22 13:31:12;;;;;;;;;2.00;2.00;;;;;;;;5063874;28;45188;-76
2023/08/22 13:33:38;;;;;;;;;2.00;1.75;;;;;;;;5069336;28;45196;-76
2023/08/22 13:36:04;;;;;;;;;2.00;2.00;;;;;;;;5080511;28;45592;-75
2023/08/22 13:38:29;;;;;;;;;3.50;2.75;;;;;;;;5050576;28;48368;-76
2023/08/22 13:40:54;;;;;;;;;2.50;2.50;;;;;;;;5069880;28;45426;-76
2023/08/22 13:43:19;;;;;;;;;3.00;2.00;;;;;;;;5067986;28;45260;-77
2023/08/22 13:45:44;;;;;;;;;1.50;1.50;;;;;;;;5068855;28;45576;-76
2023/08/22 13:48:10;;;;;;;;;2.00;2.00;;;;;;;;5047652;28;47477;-76
2023/08/22 13:50:35;;;;;;;;;3.25;3.25;;;;;;;;5070762;28;45466;-75
2023/08/22 13:53:00;;;;;;;;;3.50;2.25;;;;;;;;5071123;28;45455;-75
2023/08/22 13:55:25;;;;;;;;;2.00;2.00;;;;;;;;5054471;28;47305;-76
2023/08/22 13:57:51;;;;;;;;;4.25;4.25;;;;;;;;5070820;28;45776;-75
2023/08/22 14:00:16;;;;;;;;;3.50;3.50;;;;;;;;5053367;28;45450;-76
2023/08/22 14:02:41;;;;;;;;;5.75;4.00;;;;;;;;5070170;28;45386;-76
2023/08/22 14:05:06;;;;;;;;;10.00;9.33;;;;;;;;5048977;28;46123;-76
2023/08/22 14:07:31;;;;;;;;;2.75;2.75;;;;;;;;5069001;28;45404;-77
2023/08/22 14:09:57;;;;;;;;;2.50;2.50;;;;;;;;5069196;28;45279;-77
2023/08/22 14:12:22;;;;;;;;;3.25;3.25;;;;;;;;5072452;28;45318;-78
2023/08/22 14:14:47;;;;;;;;;2.25;2.25;;;;;;;;5070017;28;45456;-77
2023/08/22 14:17:12;;;;;;;;;56.33;44.33;;;;;;;;5070555;28;45259;-76
2023/08/22 14:19:37;;;;;;;;;7.25;7.25;;;;;;;;5061489;28;45316;-75
2023/08/22 14:22:03;;;;;;;;;5.00;5.00;;;;;;;;5043477;28;45352;-76
2023/08/22 14:24:28;;;;;;;;;3.00;3.00;;;;;;;;5054149;28;47109;-76
2023/08/22 14:26:53;;;;;;;;;4.75;2.75;;;;;;;;5046346;28;47607;-76
2023/08/22 14:29:19;;;;;;;;;2.25;2.25;;;;;;;;5078855;27;45432;-76
2023/08/22 14:31:44;;;;;;;;;26.67;24.00;;;;;;;;5071059;27;45342;-76